METAR Data

Data at: 2337 UTC 26 Feb 2020

METAR for:KACK (Nantucket Mem Arpt, MA, US)
Text:KACK 262253Z 05010KT 1SM R24/4500VP6000FT BR OVC002 06/06 A2993 RMK AO2 SLP134 T00610056
Temperature: 6.1°C ( 43°F)
Dewpoint: 5.6°C ( 42°F) [RH = 97%]
Pressure (altimeter):29.93 inches Hg (1013.6 mb) [Sea level pressure: 1013.4 mb]
Winds:from the NE (50 degrees) at 12 MPH (10 knots; 5.1 m/s)
Visibility: 1.00 sm ( 1.61 km)
Ceiling:200 feet AGL
Clouds: overcast cloud deck at 200 feet AGL
Weather:BR (mist)